Lady Merrilee III — WDD7172 — position and weather

sailwx.info

Track history (hours):
 
Tides and Currents Weather Stations Pressure Air Temp Water Temp Dewpoint Dewpoint Depression Visibility Wind Speed Wind Dir Waves Ship Positions

Lady Merrilee III

Owner: Lady Merrilee Ann Fisheries, Inc, Hampton Falls, NH. More information available from US FCC via Universal Licensing System and Coast Guard Vessel Documentation Center.

Last reported at 2018-Jun-20 18:33 UTC. Time now 2018-Jun-21 08:44 UTC.
Position N 42°52' W 070°35'.

Type: Ship. MMSI: 367182840.

Date/timePositionNaut miles runAvg speedWind from/ knotsBaromVisibWave heightAir tempDewpointWater temp
2018-Jun-20 18:33N 42°52' W 070°35'112.4
2018-Jun-20 18:29N 42°52' W 070°33'612.1
2018-Jun-20 18:00N 42°52' W 070°26'0 0.1
2018-Jun-20 12:26N 42°52' W 070°26'512.5
2018-Jun-20 12:00N 42°52' W 070°33'  
2018-Jun-15 23:26N 42°53' W 070°36'2 0.1
2018-Jun-14 19:35N 42°52' W 070°34'212.8
2018-Jun-14 19:24N 42°51' W 070°31'7 0.1
2018-Jun-12 18:12N 42°52' W 070°40'16 7.5
2018-Jun-12 16:00N 42°47' W 070°19'0 0.4
2018-Jun-12 15:07N 42°47' W 070°18'1 3.2
2018-Jun-12 14:44N 42°47' W 070°17'0 0.1
2018-Jun-12 14:30N 42°47' W 070°17'0 0.6
2018-Jun-12 13:50N 42°46' W 070°17'1 0.4
2018-Jun-12 12:30N 42°46' W 070°18'510.3
2018-Jun-12 11:58N 42°48' W 070°25'613.1
2018-Jun-12 11:30N 42°50' W 070°33'713.3
2018-Jun-12 11:00N 42°52' W 070°41'4 0.1
2018-Jun-10 19:32N 42°53' W 070°47'213.0
2018-Jun-10 19:25N 42°53' W 070°45'513.0
2018-Jun-10 19:00N 42°52' W 070°38'  
Track history (hours):
 
Tides and Currents Weather Stations Pressure Air Temp Water Temp Dewpoint Dewpoint Depression Visibility Wind Speed Wind Dir Waves Ship Positions

Lady Merrilee III

Owner: Lady Merrilee Ann Fisheries, Inc, Hampton Falls, NH. More information available from US FCC via Universal Licensing System and Coast Guard Vessel Documentation Center.

Last reported at 2018-Jun-20 18:33 UTC. Time now 2018-Jun-21 08:44 UTC.
Position N 42°52' W 070°35'.

Type: Ship. MMSI: 367182840.

Date/timePositionNaut miles runAvg speedWind from/ knotsBaromVisibWave heightAir tempDewpointWater temp
2018-Jun-20 18:33N 42°52' W 070°35'112.4
2018-Jun-20 18:29N 42°52' W 070°33'612.1
2018-Jun-20 18:00N 42°52' W 070°26'0 0.1
2018-Jun-20 12:26N 42°52' W 070°26'512.5
2018-Jun-20 12:00N 42°52' W 070°33'  
2018-Jun-15 23:26N 42°53' W 070°36'2 0.1
2018-Jun-14 19:35N 42°52' W 070°34'212.8
2018-Jun-14 19:24N 42°51' W 070°31'7 0.1
2018-Jun-12 18:12N 42°52' W 070°40'16 7.5
2018-Jun-12 16:00N 42°47' W 070°19'0 0.4
2018-Jun-12 15:07N 42°47' W 070°18'1 3.2
2018-Jun-12 14:44N 42°47' W 070°17'0 0.1
2018-Jun-12 14:30N 42°47' W 070°17'0 0.6
2018-Jun-12 13:50N 42°46' W 070°17'1 0.4
2018-Jun-12 12:30N 42°46' W 070°18'510.3
2018-Jun-12 11:58N 42°48' W 070°25'613.1
2018-Jun-12 11:30N 42°50' W 070°33'713.3
2018-Jun-12 11:00N 42°52' W 070°41'4 0.1
2018-Jun-10 19:32N 42°53' W 070°47'213.0
2018-Jun-10 19:25N 42°53' W 070°45'513.0
2018-Jun-10 19:00N 42°52' W 070°38'  

Dump ship's entire track history